createdAt,value
2023-03-03T00:01:44.977Z,99.90
2023-03-03T00:04:11.931Z,99.90
2023-03-03T00:06:38.833Z,99.90
2023-03-03T00:09:05.747Z,99.90
2023-03-03T00:11:32.965Z,99.90
2023-03-03T00:13:59.932Z,99.90
2023-03-03T00:16:35.769Z,99.90
2023-03-03T00:19:02.971Z,99.90
2023-03-03T00:21:32.494Z,99.90
2023-03-03T00:24:24.553Z,99.90
2023-03-03T00:26:56.929Z,99.90
2023-03-03T00:29:36.435Z,99.90
2023-03-03T00:32:39.357Z,99.90
2023-03-03T00:35:30.261Z,99.90
2023-03-03T00:38:04.343Z,99.90
2023-03-03T00:40:37.057Z,99.90
2023-03-03T00:43:21.273Z,99.90
2023-03-03T00:45:55.908Z,99.90
2023-03-03T00:48:50.330Z,99.90
2023-03-03T00:51:28.694Z,99.90
2023-03-03T00:53:56.986Z,99.90
2023-03-03T00:56:24.510Z,99.90
2023-03-03T00:58:51.579Z,99.90
2023-03-03T01:01:19.079Z,99.90
2023-03-03T01:03:46.024Z,99.90
2023-03-03T01:06:13.550Z,99.90
2023-03-03T01:08:40.466Z,99.90
2023-03-03T01:11:16.440Z,99.90
2023-03-03T01:13:45.380Z,99.90
2023-03-03T01:16:12.427Z,99.90
2023-03-03T01:18:41.830Z,99.90
2023-03-03T01:21:10.239Z,99.90
2023-03-03T01:23:37.723Z,99.90
2023-03-03T01:26:05.783Z,99.90
2023-03-03T01:28:33.446Z,99.90
2023-03-03T01:31:05.421Z,99.90
2023-03-03T01:33:34.513Z,99.90
2023-03-03T01:36:01.449Z,99.90
2023-03-03T01:38:28.770Z,99.90
2023-03-03T01:41:00.047Z,99.90
2023-03-03T01:43:28.952Z,99.90
2023-03-03T01:46:19.106Z,99.90
2023-03-03T01:48:46.803Z,99.90
2023-03-03T01:51:23.835Z,99.90
2023-03-03T01:53:57.862Z,99.90
2023-03-03T01:56:25.868Z,99.90
2023-03-03T01:59:07.436Z,99.90
2023-03-03T02:01:34.923Z,99.90
2023-03-03T02:04:01.833Z,99.90
2023-03-03T02:06:35.217Z,99.90
2023-03-03T02:09:14.512Z,99.90
2023-03-03T02:11:43.242Z,99.90
2023-03-03T02:14:12.676Z,99.90
2023-03-03T02:16:40.798Z,99.90
2023-03-03T02:19:33.466Z,99.90
2023-03-03T02:22:02.383Z,99.90
2023-03-03T02:24:57.534Z,99.90
2023-03-03T02:27:24.632Z,99.90
2023-03-03T02:29:52.328Z,99.90
2023-03-03T02:32:19.303Z,99.90
2023-03-03T02:34:52.071Z,99.90
2023-03-03T02:37:21.120Z,99.90
2023-03-03T02:39:48.071Z,99.90
2023-03-03T02:42:27.733Z,99.90
2023-03-03T02:44:55.668Z,99.90
2023-03-03T02:47:22.605Z,99.90
2023-03-03T02:49:49.443Z,99.90
2023-03-03T02:52:18.814Z,99.90
2023-03-03T02:54:45.746Z,99.90
2023-03-03T02:57:12.594Z,99.90
2023-03-03T02:59:39.474Z,99.90
2023-03-03T03:02:07.442Z,99.90
2023-03-03T03:04:34.319Z,99.90
2023-03-03T03:07:01.388Z,99.90
2023-03-03T03:09:28.692Z,99.90
2023-03-03T03:11:55.558Z,99.90
2023-03-03T03:14:23.930Z,99.90
2023-03-03T03:16:51.145Z,99.90
2023-03-03T03:19:17.985Z,99.90
2023-03-03T03:21:44.922Z,99.90
2023-03-03T03:24:11.815Z,99.90
2023-03-03T03:26:38.726Z,99.90
2023-03-03T03:29:06.273Z,99.90
2023-03-03T03:31:33.828Z,99.90
2023-03-03T03:34:00.758Z,99.90
2023-03-03T03:36:28.380Z,99.90
2023-03-03T03:38:55.261Z,99.90
2023-03-03T03:41:22.125Z,99.90
2023-03-03T03:43:48.932Z,99.90
2023-03-03T03:46:15.862Z,99.90
2023-03-03T03:48:42.818Z,99.90
2023-03-03T03:51:12.059Z,99.90
2023-03-03T03:53:39.066Z,99.90
2023-03-03T03:56:06.675Z,99.90
2023-03-03T03:58:33.576Z,99.90
2023-03-03T04:01:05.937Z,99.90
2023-03-03T04:03:32.870Z,99.90
2023-03-03T04:05:59.848Z,99.90
2023-03-03T04:08:26.933Z,99.90
2023-03-03T04:10:53.854Z,99.90
2023-03-03T04:13:20.831Z,99.90
2023-03-03T04:15:48.157Z,99.90
2023-03-03T04:18:15.228Z,99.90
2023-03-03T04:20:42.291Z,99.90
2023-03-03T04:23:09.150Z,99.90
2023-03-03T04:25:36.025Z,99.90
2023-03-03T04:28:05.227Z,99.90
2023-03-03T04:30:33.306Z,99.90
2023-03-03T04:33:00.156Z,99.90
2023-03-03T04:35:27.322Z,99.90
2023-03-03T04:37:54.212Z,99.90
2023-03-03T04:40:21.160Z,99.90
2023-03-03T04:42:48.049Z,99.90
2023-03-03T04:45:14.915Z,99.90
2023-03-03T04:47:42.081Z,99.90
2023-03-03T04:50:11.009Z,99.90
2023-03-03T04:52:38.137Z,99.90
2023-03-03T04:55:05.690Z,99.90
2023-03-03T04:57:32.731Z,99.90
2023-03-03T04:59:59.569Z,99.90
2023-03-03T05:02:26.511Z,99.90
2023-03-03T05:04:53.473Z,99.90
2023-03-03T05:07:20.962Z,99.90
2023-03-03T05:09:47.973Z,99.90
2023-03-03T05:12:14.810Z,99.90
2023-03-03T05:14:41.765Z,99.90
2023-03-03T05:17:08.633Z,99.90
2023-03-03T05:19:35.639Z,99.90
2023-03-03T05:22:02.590Z,99.90
2023-03-03T05:24:29.675Z,99.90
2023-03-03T05:26:56.554Z,99.90
2023-03-03T05:29:23.522Z,99.90
2023-03-03T05:31:50.663Z,99.90
2023-03-03T05:34:17.762Z,99.90
2023-03-03T05:36:44.633Z,99.90
2023-03-03T05:39:11.545Z,99.90
2023-03-03T05:41:38.899Z,99.90
2023-03-03T05:44:05.999Z,99.90
2023-03-03T05:46:33.017Z,99.90
2023-03-03T05:48:59.947Z,99.90
2023-03-03T05:51:26.797Z,99.90
2023-03-03T05:53:56.298Z,99.90
2023-03-03T05:56:23.454Z,99.90
2023-03-03T05:58:50.554Z,99.90
2023-03-03T06:01:17.548Z,99.90
2023-03-03T06:03:44.488Z,99.90
2023-03-03T06:06:12.421Z,99.90
2023-03-03T06:08:39.302Z,99.90
2023-03-03T06:11:06.211Z,99.90
2023-03-03T06:13:33.176Z,99.90
2023-03-03T06:16:00.189Z,99.90
2023-03-03T06:18:27.093Z,99.90
2023-03-03T06:20:54.814Z,99.90
2023-03-03T06:23:22.559Z,99.90
2023-03-03T06:25:49.475Z,99.90
2023-03-03T06:28:16.482Z,99.90
2023-03-03T06:30:43.530Z,99.90
2023-03-03T06:33:10.922Z,99.90
2023-03-03T06:35:37.862Z,99.90
2023-03-03T06:38:04.765Z,99.90
2023-03-03T06:40:31.639Z,99.90
2023-03-03T06:42:58.502Z,99.90
2023-03-03T06:45:25.407Z,99.90
2023-03-03T06:47:52.251Z,99.90
2023-03-03T06:50:21.265Z,99.90
2023-03-03T06:52:48.228Z,99.90
2023-03-03T06:55:23.362Z,99.90
2023-03-03T06:57:50.385Z,99.90
2023-03-03T07:00:30.875Z,99.90
2023-03-03T07:03:08.165Z,99.90
2023-03-03T07:05:35.053Z,99.90
2023-03-03T07:08:02.129Z,99.90
2023-03-03T07:10:31.156Z,99.90
2023-03-03T07:13:12.182Z,99.90
2023-03-03T07:15:39.118Z,99.90
2023-03-03T07:18:32.719Z,99.90
2023-03-03T07:21:00.575Z,99.90
2023-03-03T07:23:42.756Z,99.90
2023-03-03T07:26:34.241Z,99.90
2023-03-03T07:29:14.452Z,99.90
2023-03-03T07:31:45.316Z,99.90
2023-03-03T07:34:24.481Z,99.90
2023-03-03T07:36:55.666Z,99.90
2023-03-03T07:39:36.914Z,99.90
2023-03-03T07:42:39.974Z,99.90
2023-03-03T07:45:32.716Z,99.90
2023-03-03T07:48:26.491Z,99.90
2023-03-03T07:50:53.460Z,99.90
2023-03-03T07:53:34.930Z,99.90
2023-03-03T07:56:02.212Z,99.90
2023-03-03T07:58:38.451Z,99.90
2023-03-03T08:01:27.452Z,99.90
2023-03-03T08:03:55.006Z,99.90
2023-03-03T08:06:52.329Z,99.90
2023-03-03T08:09:44.287Z,99.90
2023-03-03T08:12:32.798Z,99.90
2023-03-03T08:15:20.134Z,99.90
2023-03-03T08:17:48.297Z,99.90
2023-03-03T08:20:56.979Z,99.90
2023-03-03T08:23:23.900Z,99.90
2023-03-03T08:25:52.037Z,99.90
2023-03-03T08:28:19.903Z,99.90
2023-03-03T08:30:47.517Z,99.90
2023-03-03T08:33:15.328Z,99.90
2023-03-03T08:35:42.626Z,99.90
2023-03-03T08:38:10.232Z,99.90
2023-03-03T08:40:37.529Z,99.90
2023-03-03T08:43:04.624Z,99.80
2023-03-03T08:45:32.351Z,99.40
2023-03-03T08:48:00.105Z,97.60
2023-03-03T08:50:28.552Z,96.30
2023-03-03T08:52:56.130Z,95.80
2023-03-03T08:55:23.033Z,95.30
2023-03-03T08:57:50.068Z,94.60
2023-03-03T09:00:18.399Z,93.50
2023-03-03T09:02:45.502Z,91.90
2023-03-03T09:05:12.943Z,90.90
2023-03-03T09:07:40.601Z,88.90
2023-03-03T09:10:08.466Z,88.80
2023-03-03T09:12:39.409Z,86.40
2023-03-03T09:15:33.668Z,83.60
2023-03-03T09:18:13.408Z,82.00
2023-03-03T09:20:51.736Z,80.40
2023-03-03T09:23:39.248Z,79.30
2023-03-03T09:26:30.717Z,76.90
2023-03-03T09:29:36.735Z,74.90
2023-03-03T09:32:35.390Z,74.40
2023-03-03T09:35:51.732Z,71.10
2023-03-03T09:38:33.316Z,70.60
2023-03-03T09:41:55.084Z,70.50
2023-03-03T09:45:12.386Z,70.70
2023-03-03T09:48:32.043Z,69.20
2023-03-03T09:51:12.249Z,69.60
2023-03-03T09:58:10.440Z,70.40
2023-03-03T10:01:08.694Z,65.10
2023-03-03T10:06:55.091Z,62.80
2023-03-03T10:10:03.701Z,64.20
2023-03-03T10:16:12.908Z,64.20
2023-03-03T10:18:52.222Z,62.20
2023-03-03T10:21:45.193Z,63.10
2023-03-03T10:24:29.008Z,63.00
2023-03-03T10:27:30.258Z,59.50
2023-03-03T10:30:04.127Z,57.90
2023-03-03T10:32:51.758Z,56.60
2023-03-03T10:36:00.948Z,57.30
2023-03-03T10:39:06.201Z,51.80
2023-03-03T10:45:46.098Z,50.70
2023-03-03T10:48:38.742Z,49.20
2023-03-03T10:51:49.141Z,47.00
2023-03-03T11:31:35.311Z,28.10
2023-03-03T11:34:34.968Z,29.20
2023-03-03T11:37:08.690Z,25.50
2023-03-03T11:39:37.171Z,24.10
2023-03-03T11:42:24.867Z,21.50
2023-03-03T11:44:59.922Z,23.70
2023-03-03T11:47:59.397Z,19.30
2023-03-03T11:51:09.706Z,20.00
2023-03-03T11:54:04.578Z,21.70
2023-03-03T11:56:43.171Z,20.60
2023-03-03T11:59:37.729Z,20.70
2023-03-03T12:02:27.580Z,16.80
2023-03-03T12:05:00.073Z,14.80
2023-03-03T12:07:54.809Z,14.20
2023-03-03T12:10:33.594Z,14.10
2023-03-03T12:13:28.289Z,14.70
2023-03-03T12:16:26.312Z,14.60
2023-03-03T12:19:31.782Z,15.20
2023-03-03T12:23:05.830Z,14.70
2023-03-03T12:25:42.710Z,14.00
2023-03-03T12:28:19.560Z,13.80
2023-03-03T13:00:23.704Z,1.00
2023-03-03T13:06:41.710Z,1.20
2023-03-03T13:09:22.911Z,5.20
2023-03-03T13:12:20.831Z,6.60
2023-03-03T13:21:15.289Z,1.00
2023-03-03T13:24:23.943Z,3.50
2023-03-03T13:27:14.984Z,1.00
2023-03-03T13:29:43.804Z,1.00
2023-03-03T13:32:19.948Z,1.00
2023-03-03T13:35:07.894Z,1.00
2023-03-03T13:37:47.716Z,1.00
2023-03-03T13:40:19.587Z,1.00
2023-03-03T13:42:59.608Z,1.00
2023-03-03T13:45:53.371Z,1.00
2023-03-03T13:52:15.434Z,1.00
2023-03-03T13:55:31.949Z,2.90
2023-03-03T13:58:36.961Z,4.50
2023-03-03T14:01:36.825Z,6.30
2023-03-03T14:04:48.447Z,5.80
2023-03-03T14:07:41.643Z,4.60
2023-03-03T14:10:26.766Z,3.70
2023-03-03T14:13:05.222Z,4.80
2023-03-03T14:15:50.317Z,6.50
2023-03-03T14:19:00.471Z,8.00
2023-03-03T14:21:35.692Z,9.40
2023-03-03T14:24:23.309Z,10.70
2023-03-03T14:26:55.911Z,8.70
2023-03-03T14:29:33.149Z,9.50
2023-03-03T14:32:21.934Z,9.40
2023-03-03T14:34:58.495Z,9.20
2023-03-03T14:37:45.005Z,10.20
2023-03-03T14:40:33.494Z,11.00
2023-03-03T14:43:02.487Z,11.10
2023-03-03T14:45:41.111Z,9.80
2023-03-03T14:48:27.741Z,7.10
2023-03-03T14:51:23.422Z,6.90
2023-03-03T14:53:51.139Z,7.50
2023-03-03T14:56:43.757Z,6.80
2023-03-03T14:59:21.760Z,9.10
2023-03-03T15:01:57.984Z,11.00
2023-03-03T15:04:27.922Z,10.70
2023-03-03T15:06:55.724Z,10.60
2023-03-03T15:09:36.170Z,10.30
2023-03-03T15:12:20.341Z,11.50
2023-03-03T15:14:50.432Z,12.60
2023-03-03T15:17:28.175Z,13.50
2023-03-03T15:20:41.065Z,13.60
2023-03-03T15:23:33.981Z,14.00
2023-03-03T15:26:35.766Z,15.10
2023-03-03T15:29:28.759Z,15.40
2023-03-03T15:32:28.983Z,16.50
2023-03-03T15:35:06.761Z,17.30
2023-03-03T15:37:52.243Z,18.90
2023-03-03T15:40:49.334Z,19.70
2023-03-03T15:43:40.042Z,21.30
2023-03-03T15:46:40.128Z,21.30
2023-03-03T15:49:33.280Z,21.80
2023-03-03T15:52:25.038Z,20.80
2023-03-03T15:55:23.128Z,20.70
2023-03-03T15:58:39.208Z,20.70
2023-03-03T16:01:34.204Z,22.00
2023-03-03T16:04:12.382Z,22.10
2023-03-03T16:06:53.988Z,22.70
2023-03-03T16:10:14.091Z,23.30
2023-03-03T16:13:06.275Z,25.00
2023-03-03T16:15:52.300Z,27.30
2023-03-03T16:19:14.275Z,27.30
2023-03-03T16:22:26.960Z,27.20
2023-03-03T16:28:55.478Z,31.60
2023-03-03T16:31:58.177Z,34.70
2023-03-03T16:34:43.367Z,35.50
2023-03-03T16:37:36.204Z,36.00
2023-03-03T16:40:27.681Z,35.40
2023-03-03T16:43:16.703Z,37.00
2023-03-03T16:45:43.843Z,39.00
2023-03-03T16:48:22.978Z,40.80
2023-03-03T16:51:24.572Z,46.30
2023-03-03T16:54:05.361Z,47.10
2023-03-03T16:56:43.195Z,47.90
2023-03-03T16:59:48.551Z,48.00
2023-03-03T17:02:46.641Z,49.20
2023-03-03T17:06:04.411Z,53.80
2023-03-03T17:09:01.097Z,53.70
2023-03-03T17:12:06.985Z,52.30
2023-03-03T17:15:05.378Z,54.40
2023-03-03T17:21:02.444Z,63.30
2023-03-03T17:23:51.033Z,63.40
2023-03-03T17:33:28.374Z,65.50
2023-03-03T17:36:24.057Z,68.30
2023-03-03T17:39:31.468Z,73.50
2023-03-03T17:42:03.330Z,76.00
2023-03-03T17:44:50.410Z,79.90
2023-03-03T17:48:03.561Z,83.60
2023-03-03T17:50:56.286Z,86.20
2023-03-03T17:53:47.191Z,86.90
2023-03-03T17:56:42.002Z,86.30
2023-03-03T18:00:02.745Z,86.10
2023-03-03T18:03:02.647Z,85.50
2023-03-03T18:06:11.805Z,84.10
2023-03-03T18:36:40.064Z,88.50
2023-03-03T18:39:13.531Z,87.90
2023-03-03T18:42:10.513Z,86.40
2023-03-03T18:44:37.643Z,84.20
2023-03-03T18:47:04.665Z,83.30
2023-03-03T18:49:49.932Z,82.50
2023-03-03T18:52:27.436Z,81.60
2023-03-03T18:55:21.849Z,79.30
2023-03-03T18:58:26.531Z,76.80
2023-03-03T19:01:33.924Z,74.60
2023-03-03T19:04:19.136Z,71.50
2023-03-03T19:07:18.973Z,67.70
2023-03-03T19:09:57.724Z,65.30
2023-03-03T19:13:02.501Z,64.60
2023-03-03T19:15:48.586Z,64.30
2023-03-03T19:18:28.741Z,63.10
2023-03-03T19:21:21.314Z,62.10
2023-03-03T19:24:00.794Z,61.50
2023-03-03T19:26:37.807Z,60.50
2023-03-03T19:30:02.793Z,60.40
2023-03-03T19:33:14.992Z,60.90
2023-03-03T19:36:19.273Z,60.60
2023-03-03T19:42:46.506Z,60.40
2023-03-03T19:45:28.325Z,60.50
2023-03-03T19:48:21.681Z,60.50
2023-03-03T19:51:18.855Z,60.50
2023-03-03T19:57:03.680Z,61.00
2023-03-03T19:59:47.824Z,61.40
2023-03-03T20:05:25.907Z,60.60
2023-03-03T20:08:11.285Z,60.50
2023-03-03T20:11:15.139Z,59.60
2023-03-03T20:20:43.332Z,58.50
2023-03-03T20:23:36.802Z,59.60
2023-03-03T20:26:17.782Z,60.00
2023-03-03T20:29:37.605Z,60.40
2023-03-03T20:32:41.693Z,60.30
2023-03-03T20:35:32.321Z,60.30
2023-03-03T20:38:23.943Z,59.90
2023-03-03T20:41:44.053Z,59.40
2023-03-03T20:45:10.212Z,59.80
2023-03-03T20:48:19.228Z,60.00
2023-03-03T20:51:08.156Z,60.50
2023-03-03T20:53:35.051Z,60.30
2023-03-03T20:56:41.506Z,60.60
2023-03-03T20:59:32.700Z,60.60
2023-03-03T21:02:15.518Z,60.60
2023-03-03T21:04:42.826Z,60.00
2023-03-03T21:07:24.653Z,60.30
2023-03-03T21:10:27.262Z,60.60
2023-03-03T21:12:56.288Z,60.60
2023-03-03T21:15:35.761Z,60.70
2023-03-03T21:18:21.611Z,61.50
2023-03-03T21:20:48.566Z,62.30
2023-03-03T21:23:16.732Z,62.60
2023-03-03T21:25:54.630Z,62.50
2023-03-03T21:28:58.388Z,63.00
2023-03-03T21:31:25.553Z,62.90
2023-03-03T21:33:57.014Z,62.70
2023-03-03T21:36:53.959Z,62.20
2023-03-03T21:39:41.977Z,61.90
2023-03-03T21:42:18.892Z,62.00
2023-03-03T21:44:49.228Z,62.20
2023-03-03T21:47:21.813Z,62.10
2023-03-03T21:49:50.888Z,62.00
2023-03-03T21:52:19.978Z,62.10
2023-03-03T21:54:48.634Z,62.10
2023-03-03T21:57:15.773Z,62.60
2023-03-03T21:59:42.762Z,62.30
2023-03-03T22:02:10.575Z,62.60
2023-03-03T22:04:41.032Z,62.70
2023-03-03T22:07:08.707Z,62.60
2023-03-03T22:09:36.277Z,62.10
2023-03-03T22:12:03.617Z,60.90
2023-03-03T22:14:30.795Z,61.20
2023-03-03T22:16:58.529Z,60.70
2023-03-03T22:19:25.705Z,60.60
2023-03-03T22:21:52.782Z,60.70
2023-03-03T22:24:19.675Z,60.70
2023-03-03T22:26:46.552Z,60.70
2023-03-03T22:29:13.576Z,60.70
2023-03-03T22:31:40.931Z,60.40
2023-03-03T22:34:07.929Z,59.80
2023-03-03T22:36:34.783Z,59.60
2023-03-03T22:39:02.045Z,58.60
2023-03-03T22:41:29.065Z,58.90
2023-03-03T22:43:55.970Z,58.40
2023-03-03T22:46:23.472Z,57.70
2023-03-03T22:48:50.458Z,57.10
2023-03-03T22:51:18.433Z,56.40
2023-03-03T22:53:45.289Z,56.20
2023-03-03T22:56:12.265Z,56.70
2023-03-03T22:58:39.393Z,57.50
2023-03-03T23:01:06.290Z,57.50
2023-03-03T23:03:33.241Z,57.90
2023-03-03T23:06:00.260Z,58.10
2023-03-03T23:08:27.750Z,57.60
2023-03-03T23:10:54.624Z,57.30
2023-03-03T23:13:21.679Z,57.60
2023-03-03T23:15:48.742Z,57.50
2023-03-03T23:18:15.782Z,57.60
2023-03-03T23:20:45.884Z,56.20
2023-03-03T23:23:13.112Z,56.20
2023-03-03T23:25:40.011Z,56.30
2023-03-03T23:28:07.616Z,56.30
2023-03-03T23:30:34.819Z,56.20
2023-03-03T23:33:01.768Z,55.50
2023-03-03T23:35:28.689Z,54.90
2023-03-03T23:37:55.656Z,55.20
2023-03-03T23:40:22.621Z,56.00
2023-03-03T23:42:49.769Z,55.40
2023-03-03T23:45:16.881Z,54.50
2023-03-03T23:47:43.884Z,54.20
2023-03-03T23:50:12.426Z,54.00
2023-03-03T23:52:39.383Z,53.90
2023-03-03T23:55:07.316Z,53.50
2023-03-03T23:57:34.323Z,52.90
